createdAt,value
2022-08-07T00:01:44.206Z,100190.84
2022-08-07T00:04:00.951Z,100188.91
2022-08-07T00:06:33.678Z,100184.13
2022-08-07T00:09:16.799Z,100185.22
2022-08-07T00:11:56.026Z,100182.94
2022-08-07T00:14:30.241Z,100178.66
2022-08-07T00:17:02.374Z,100180.38
2022-08-07T00:20:00.426Z,100186.25
2022-08-07T00:22:24.361Z,100173.19
2022-08-07T00:25:16.579Z,100184.00
2022-08-07T00:27:53.390Z,100179.13
2022-08-07T00:30:26.734Z,100174.16
2022-08-07T00:32:54.405Z,100180.47
2022-08-07T00:35:23.110Z,100168.03
2022-08-07T00:37:50.098Z,100168.28
2022-08-07T00:40:39.704Z,100168.53
2022-08-07T00:43:10.022Z,100170.63
2022-08-07T00:45:38.588Z,100168.31
2022-08-07T00:48:18.407Z,100169.69
2022-08-07T00:50:51.341Z,100168.81
2022-08-07T00:53:20.277Z,100161.16
2022-08-07T00:56:03.325Z,100163.81
2022-08-07T00:58:32.370Z,100157.84
2022-08-07T01:00:59.492Z,100162.59
2022-08-07T01:03:55.394Z,100151.25
2022-08-07T01:06:13.022Z,100152.84
2022-08-07T01:08:46.524Z,100145.88
2022-08-07T01:12:23.618Z,100148.84
2022-08-07T01:14:07.968Z,100145.16
2022-08-07T01:16:36.723Z,100142.59
2022-08-07T01:19:14.881Z,100146.63
2022-08-07T01:21:48.105Z,100136.63
2022-08-07T01:24:18.701Z,100141.75
2022-08-07T01:26:52.242Z,100136.75
2022-08-07T01:29:22.027Z,100146.88
2022-08-07T01:31:49.454Z,100143.72
2022-08-07T01:34:18.585Z,100142.63
2022-08-07T01:36:52.947Z,100143.84
2022-08-07T01:39:26.870Z,100141.75
2022-08-07T01:42:37.132Z,100149.56
2022-08-07T01:44:54.320Z,100144.06
2022-08-07T01:48:19.950Z,100140.06
2022-08-07T01:50:08.880Z,100142.84
2022-08-07T01:52:38.973Z,100146.41
2022-08-07T01:55:22.358Z,100151.88
2022-08-07T01:58:05.792Z,100147.00
2022-08-07T02:00:45.386Z,100146.28
2022-08-07T02:03:26.236Z,100155.28
2022-08-07T02:06:08.953Z,100147.97
2022-08-07T02:08:54.327Z,100147.22
2022-08-07T02:11:31.066Z,100137.38
2022-08-07T02:14:10.478Z,100141.75
2022-08-07T02:16:58.054Z,100144.44
2022-08-07T02:20:05.658Z,100147.63
2022-08-07T02:22:13.280Z,100140.03
2022-08-07T02:24:48.516Z,100140.16
2022-08-07T02:27:20.036Z,100144.56
2022-08-07T02:29:53.980Z,100143.94
2022-08-07T02:32:29.839Z,100149.31
2022-08-07T02:34:57.859Z,100149.66
2022-08-07T02:37:26.780Z,100143.19
2022-08-07T02:40:02.298Z,100143.19
2022-08-07T02:42:43.549Z,100152.41
2022-08-07T02:45:58.675Z,100146.34
2022-08-07T02:48:01.621Z,100145.84
2022-08-07T02:50:30.921Z,100139.25
2022-08-07T02:53:06.191Z,100147.00
2022-08-07T02:56:03.587Z,100145.44
2022-08-07T02:58:27.242Z,100142.38
2022-08-07T03:00:57.301Z,100140.66
2022-08-07T03:03:26.639Z,100144.66
2022-08-07T03:06:16.487Z,100146.47
2022-08-07T03:08:43.728Z,100136.56
2022-08-07T03:11:11.180Z,100139.81
2022-08-07T03:13:39.060Z,100143.34
2022-08-07T03:16:16.602Z,100142.28
2022-08-07T03:18:44.983Z,100132.75
2022-08-07T03:21:14.477Z,100139.09
2022-08-07T03:24:19.406Z,100137.38
2022-08-07T03:26:35.667Z,100131.16
2022-08-07T03:29:14.853Z,100143.72
2022-08-07T03:31:46.274Z,100136.88
2022-08-07T03:34:18.164Z,100137.19
2022-08-07T03:36:50.014Z,100127.81
2022-08-07T03:39:17.926Z,100135.84
2022-08-07T03:42:05.998Z,100137.78
2022-08-07T03:44:35.808Z,100141.41
2022-08-07T03:47:13.483Z,100139.72
2022-08-07T03:49:47.986Z,100138.69
2022-08-07T03:52:26.745Z,100139.88
2022-08-07T03:55:06.789Z,100143.31
2022-08-07T03:58:34.296Z,100142.22
2022-08-07T04:00:29.408Z,100158.28
2022-08-07T04:02:59.400Z,100148.41
2022-08-07T04:05:39.539Z,100150.25
2022-08-07T04:08:11.060Z,100147.78
2022-08-07T04:10:39.026Z,100147.69
2022-08-07T04:13:15.035Z,100140.84
2022-08-07T04:15:45.605Z,100145.47
2022-08-07T04:18:57.688Z,100148.16
2022-08-07T04:21:02.837Z,100140.66
2022-08-07T04:23:43.283Z,100147.97
2022-08-07T04:26:21.990Z,100150.53
2022-08-07T04:28:49.817Z,100145.91
2022-08-07T04:31:19.735Z,100152.13
2022-08-07T04:33:47.301Z,100151.91
2022-08-07T04:36:22.785Z,100148.47
2022-08-07T04:38:52.828Z,100151.16
2022-08-07T04:41:19.620Z,100145.69
2022-08-07T04:44:13.259Z,100151.69
2022-08-07T04:46:59.669Z,100161.28
2022-08-07T04:49:57.897Z,100155.50
2022-08-07T04:52:51.030Z,100144.56
2022-08-07T04:58:23.768Z,100167.47
2022-08-07T04:58:32.072Z,100168.81
2022-08-07T05:01:15.785Z,100172.16
2022-08-07T05:04:07.951Z,100166.44
2022-08-07T05:06:43.264Z,100167.81
2022-08-07T05:09:43.108Z,100168.09
2022-08-07T05:12:26.859Z,100164.72
2022-08-07T05:15:05.110Z,100167.75
2022-08-07T05:17:53.025Z,100171.59
2022-08-07T05:20:25.782Z,100168.59
2022-08-07T05:22:58.138Z,100137.16
2022-08-07T05:26:10.938Z,100131.97
2022-08-07T05:28:22.656Z,100130.69
2022-08-07T05:30:52.469Z,100119.75
2022-08-07T05:33:20.913Z,100125.75
2022-08-07T05:35:51.202Z,100128.38
2022-08-07T05:39:00.520Z,100127.91
2022-08-07T05:41:14.100Z,100125.81
2022-08-07T05:44:07.530Z,100125.19
2022-08-07T05:46:37.693Z,100137.94
2022-08-07T05:49:11.837Z,100126.31
2022-08-07T05:51:42.200Z,100138.00
2022-08-07T05:54:31.513Z,100132.56
2022-08-07T05:56:58.929Z,100143.47
2022-08-07T05:59:27.579Z,100140.41
2022-08-07T06:01:58.202Z,100147.63
2022-08-07T06:04:30.204Z,100152.84
2022-08-07T06:07:03.798Z,100152.88
2022-08-07T06:09:44.778Z,100156.22
2022-08-07T06:12:18.566Z,100160.81
2022-08-07T06:14:49.603Z,100156.06
2022-08-07T06:17:19.251Z,100165.38
2022-08-07T06:20:03.575Z,100162.13
2022-08-07T06:22:38.685Z,100163.84
2022-08-07T06:25:06.683Z,100161.97
2022-08-07T06:28:00.717Z,100159.84
2022-08-07T06:30:37.543Z,100158.97
2022-08-07T06:33:09.961Z,100155.38
2022-08-07T06:35:47.504Z,100151.50
2022-08-07T06:38:30.454Z,100148.75
2022-08-07T06:41:00.674Z,100164.47
2022-08-07T06:43:39.642Z,100154.97
2022-08-07T06:46:12.318Z,100146.84
2022-08-07T06:48:42.110Z,100140.69
2022-08-07T06:51:31.032Z,100147.66
2022-08-07T06:55:27.359Z,100140.94
2022-08-07T06:56:51.221Z,100144.44
2022-08-07T07:00:14.211Z,100146.22
2022-08-07T07:02:15.608Z,100140.06
2022-08-07T07:05:03.164Z,100139.63
2022-08-07T07:07:58.999Z,100139.38
2022-08-07T07:10:27.052Z,100145.09
2022-08-07T07:12:59.942Z,100139.63
2022-08-07T07:15:35.882Z,100137.22
2022-08-07T07:18:05.557Z,100143.69
2022-08-07T07:20:42.093Z,100140.56
2022-08-07T07:24:09.307Z,100139.22
2022-08-07T07:26:35.523Z,100135.09
2022-08-07T07:29:38.895Z,100138.88
2022-08-07T07:31:46.869Z,100139.41
2022-08-07T07:34:19.930Z,100134.59
2022-08-07T07:36:53.930Z,100135.81
2022-08-07T07:39:25.667Z,100129.72
2022-08-07T07:42:13.495Z,100133.16
2022-08-07T07:44:44.460Z,100125.97
2022-08-07T07:47:22.988Z,100126.91
2022-08-07T07:50:36.532Z,100121.03
2022-08-07T07:52:40.982Z,100119.69
2022-08-07T07:55:10.985Z,100115.66
2022-08-07T07:57:52.324Z,100127.75
2022-08-07T08:00:31.577Z,100110.66
2022-08-07T08:03:08.498Z,100103.53
2022-08-07T08:05:54.496Z,100112.66
2022-08-07T08:08:35.037Z,100115.56
2022-08-07T08:11:09.200Z,100112.34
2022-08-07T08:13:55.279Z,100112.47
2022-08-07T08:16:37.641Z,100111.25
2022-08-07T08:19:17.332Z,100114.69
2022-08-07T08:22:09.820Z,100111.25
2022-08-07T08:25:09.580Z,100105.97
2022-08-07T08:27:56.492Z,100099.94
2022-08-07T08:30:25.691Z,100103.25
2022-08-07T08:33:00.068Z,100102.03
2022-08-07T08:35:39.411Z,100095.06
2022-08-07T08:38:15.410Z,100093.66
2022-08-07T08:40:48.752Z,100098.50
2022-08-07T08:43:21.309Z,100088.03
2022-08-07T08:46:06.648Z,100079.72
2022-08-07T08:48:52.057Z,100079.25
2022-08-07T08:52:13.215Z,100081.44
2022-08-07T08:54:41.514Z,100069.03
2022-08-07T08:57:21.424Z,100073.88
2022-08-07T09:00:01.798Z,100066.00
2022-08-07T09:02:41.888Z,100067.31
2022-08-07T09:05:46.334Z,100075.25
2022-08-07T09:08:39.326Z,100066.41
2022-08-07T09:11:13.998Z,100071.47
2022-08-07T09:14:02.537Z,100061.00
2022-08-07T09:16:39.280Z,100067.38
2022-08-07T09:19:51.219Z,100066.25
2022-08-07T09:24:28.502Z,100065.44
2022-08-07T09:25:34.112Z,100063.88
2022-08-07T09:30:01.644Z,100047.28
2022-08-07T09:31:19.198Z,100046.06
2022-08-07T09:34:14.420Z,100045.59
2022-08-07T09:37:02.965Z,100039.28
2022-08-07T09:40:04.663Z,100040.00
2022-08-07T09:42:43.550Z,100036.28
2022-08-07T09:47:49.766Z,100033.34
2022-08-07T09:48:56.119Z,100025.13
2022-08-07T09:52:16.700Z,100030.09
2022-08-07T09:54:47.606Z,100028.03
2022-08-07T09:57:46.445Z,100019.97
2022-08-07T10:00:16.412Z,100018.38
2022-08-07T10:04:06.192Z,100018.50
2022-08-07T10:06:49.073Z,100001.28
2022-08-07T10:09:59.032Z,100002.56
2022-08-07T10:12:53.171Z,99998.41
2022-08-07T10:15:46.361Z,99996.31
2022-08-07T10:18:38.980Z,99986.28
2022-08-07T10:22:12.665Z,99990.31
2022-08-07T10:24:45.473Z,99991.34
2022-08-07T10:28:10.388Z,99986.94
2022-08-07T10:31:05.897Z,99974.34
2022-08-07T10:34:15.049Z,99977.47
2022-08-07T10:36:45.550Z,99977.19
2022-08-07T10:39:41.330Z,99961.91
2022-08-07T10:42:34.297Z,99963.25
2022-08-07T10:45:45.330Z,99958.28
2022-08-07T10:48:14.517Z,99961.00
2022-08-07T10:50:50.659Z,99962.78
2022-08-07T10:53:41.768Z,99954.28
2022-08-07T10:56:36.181Z,99947.88
2022-08-07T10:59:24.034Z,99946.53
2022-08-07T11:02:33.155Z,99946.28
2022-08-07T11:05:25.182Z,99947.78
2022-08-07T11:08:31.277Z,99940.88
2022-08-07T11:11:27.378Z,99946.94
2022-08-07T11:14:45.608Z,99938.53
2022-08-07T11:17:13.002Z,99939.59
2022-08-07T11:20:24.663Z,99937.56
2022-08-07T11:23:30.683Z,99926.16
2022-08-07T11:26:21.127Z,99922.97
2022-08-07T11:28:56.518Z,99925.25
2022-08-07T11:31:22.916Z,99910.91
2022-08-07T11:34:00.196Z,99911.91
2022-08-07T11:36:45.321Z,99907.50
2022-08-07T11:39:39.686Z,99908.66
2022-08-07T11:42:47.497Z,99908.09
2022-08-07T11:45:38.156Z,99892.28
2022-08-07T11:48:49.969Z,99895.81
2022-08-07T11:52:03.726Z,99891.47
2022-08-07T11:54:41.306Z,99888.28
2022-08-07T11:57:14.133Z,99889.91
2022-08-07T12:00:11.795Z,99892.50
2022-08-07T12:03:44.207Z,99883.63
2022-08-07T12:06:39.049Z,99879.88
2022-08-07T12:09:07.488Z,99888.69
2022-08-07T12:11:43.498Z,99882.63
2022-08-07T12:14:33.897Z,99872.22
2022-08-07T12:17:05.289Z,99879.13
2022-08-07T12:19:35.980Z,99872.53
2022-08-07T12:22:56.031Z,99875.59
2022-08-07T12:26:05.495Z,99873.72
2022-08-07T12:29:00.645Z,99868.72
2022-08-07T12:31:53.016Z,99867.94
2022-08-07T12:34:26.692Z,99857.06
2022-08-07T12:36:56.257Z,99864.69
2022-08-07T12:39:44.247Z,99850.03
2022-08-07T12:42:13.324Z,99855.06
2022-08-07T12:44:44.993Z,99858.22
2022-08-07T12:47:30.708Z,99850.34
2022-08-07T12:50:39.472Z,99862.22
2022-08-07T12:52:55.648Z,99849.63
2022-08-07T12:55:41.018Z,99846.56
2022-08-07T12:58:13.003Z,99843.88
2022-08-07T13:01:08.758Z,99846.09
2022-08-07T13:04:03.103Z,99839.28
2022-08-07T13:07:02.228Z,99844.13
2022-08-07T13:10:37.753Z,99840.13
2022-08-07T13:13:48.918Z,99843.25
2022-08-07T13:16:29.051Z,99835.03
2022-08-07T13:19:21.933Z,99830.16
2022-08-07T13:22:19.340Z,99829.53
2022-08-07T13:25:06.770Z,99825.88
2022-08-07T13:28:11.029Z,99815.22
2022-08-07T13:30:48.942Z,99818.03
2022-08-07T13:34:31.778Z,99817.69
2022-08-07T13:36:49.057Z,99808.59
2022-08-07T13:39:28.494Z,99810.84
2022-08-07T13:42:21.493Z,99804.53
2022-08-07T13:45:11.655Z,99809.97
2022-08-07T13:48:08.293Z,99792.22
2022-08-07T13:50:35.134Z,99795.31
2022-08-07T13:53:23.888Z,99794.47
2022-08-07T13:55:54.875Z,99804.53
2022-08-07T13:58:56.612Z,99791.94
2022-08-07T14:01:26.307Z,99783.72
2022-08-07T14:04:07.867Z,99790.69
2022-08-07T14:06:39.007Z,99774.13
2022-08-07T14:09:10.038Z,99772.66
2022-08-07T14:12:04.883Z,99775.56
2022-08-07T14:14:50.576Z,99771.72
2022-08-07T14:18:12.654Z,99771.75
2022-08-07T14:20:42.943Z,99769.94
2022-08-07T14:23:58.991Z,99766.69
2022-08-07T14:26:23.666Z,99766.50
2022-08-07T14:29:08.909Z,99765.03
2022-08-07T14:31:53.199Z,99760.25
2022-08-07T14:34:29.537Z,99756.06
2022-08-07T14:37:03.108Z,99749.34
2022-08-07T14:40:15.760Z,99757.03
2022-08-07T14:42:25.134Z,99750.69
2022-08-07T14:45:20.813Z,99756.41
2022-08-07T14:47:47.085Z,99746.47
2022-08-07T14:50:19.118Z,99748.03
2022-08-07T14:52:50.399Z,99748.72
2022-08-07T14:55:18.714Z,99749.69
2022-08-07T15:00:39.706Z,99741.09
2022-08-07T15:06:03.740Z,99720.19
2022-08-07T15:08:53.023Z,99716.94
2022-08-07T15:11:53.379Z,99717.34
2022-08-07T15:14:19.732Z,99728.78
2022-08-07T15:20:33.627Z,99721.06
2022-08-07T15:22:53.943Z,99727.97
2022-08-07T15:25:36.974Z,99720.63
2022-08-07T15:31:05.135Z,99713.13
2022-08-07T15:33:36.097Z,99716.47
2022-08-07T15:36:05.748Z,99715.81
2022-08-07T15:38:51.460Z,99715.06
2022-08-07T15:42:43.772Z,99713.03
2022-08-07T15:44:17.134Z,99700.50
2022-08-07T15:50:05.252Z,99701.66
2022-08-07T15:52:30.022Z,99708.75
2022-08-07T15:55:02.755Z,99698.94
2022-08-07T15:57:47.719Z,99705.88
2022-08-07T16:00:31.713Z,99720.16
2022-08-07T16:03:06.602Z,99708.91
2022-08-07T16:05:52.140Z,99696.88
2022-08-07T16:08:30.207Z,99703.28
2022-08-07T16:11:04.704Z,99700.91
2022-08-07T16:14:02.739Z,99701.72
2022-08-07T16:16:49.400Z,99697.59
2022-08-07T16:19:42.034Z,99689.13
2022-08-07T16:22:55.346Z,99686.00
2022-08-07T16:25:55.505Z,99678.94
2022-08-07T16:30:05.973Z,99688.13
2022-08-07T16:31:57.420Z,99685.13
2022-08-07T16:34:26.976Z,99695.56
2022-08-07T16:37:02.992Z,99690.22
2022-08-07T16:39:52.213Z,99695.84
2022-08-07T16:42:43.364Z,99693.09
2022-08-07T16:46:33.016Z,99680.88
2022-08-07T16:48:53.779Z,99686.13
2022-08-07T16:52:01.704Z,99693.34
2022-08-07T16:54:55.207Z,99688.06
2022-08-07T16:58:02.727Z,99680.44
2022-08-07T17:00:33.440Z,99687.94
2022-08-07T17:03:58.528Z,99685.31
2022-08-07T17:06:42.628Z,99693.56
2022-08-07T17:10:07.833Z,99693.50
2022-08-07T17:12:38.832Z,99688.88
2022-08-07T17:15:15.567Z,99691.41
2022-08-07T17:17:46.576Z,99691.25
2022-08-07T17:20:37.490Z,99692.09
2022-08-07T17:23:22.558Z,99696.09
2022-08-07T17:26:23.430Z,99690.31
2022-08-07T17:30:13.237Z,99686.59
2022-08-07T17:32:30.823Z,99685.00
2022-08-07T17:35:50.840Z,99700.00
2022-08-07T17:38:11.505Z,99692.22
2022-08-07T17:42:01.571Z,99686.44
2022-08-07T17:44:02.659Z,99698.78
2022-08-07T17:46:52.579Z,99698.41
2022-08-07T17:49:24.418Z,99700.94
2022-08-07T17:52:04.396Z,99702.78
2022-08-07T17:54:53.278Z,99705.50
2022-08-07T17:57:58.523Z,99702.09
2022-08-07T18:00:34.543Z,99707.88
2022-08-07T18:03:28.623Z,99707.19
2022-08-07T18:06:16.655Z,99707.38
2022-08-07T18:09:01.843Z,99707.31
2022-08-07T18:12:17.474Z,99709.06
2022-08-07T18:14:51.171Z,99702.19
2022-08-07T18:18:46.130Z,99701.13
2022-08-07T18:21:02.973Z,99708.03
2022-08-07T18:24:07.300Z,99716.78
2022-08-07T18:26:53.605Z,99722.53
2022-08-07T18:30:31.098Z,99725.13
2022-08-07T18:33:15.584Z,99734.03
2022-08-07T18:35:52.101Z,99740.13
2022-08-07T18:38:55.490Z,99745.25
2022-08-07T18:41:21.997Z,99739.38
2022-08-07T18:44:03.220Z,99747.19
2022-08-07T18:46:47.275Z,99751.81
2022-08-07T18:50:33.098Z,99755.63
2022-08-07T18:52:37.519Z,99759.38
2022-08-07T18:55:43.068Z,99758.72
2022-08-07T18:58:33.075Z,99765.25
2022-08-07T19:01:09.620Z,99766.91
2022-08-07T19:04:37.900Z,99771.94
2022-08-07T19:07:51.986Z,99773.56
2022-08-07T19:10:49.499Z,99780.41
2022-08-07T19:14:07.841Z,99784.97
2022-08-07T19:17:08.002Z,99787.66
2022-08-07T19:20:00.924Z,99788.63
2022-08-07T19:22:44.831Z,99794.66
2022-08-07T19:26:21.955Z,99807.63
2022-08-07T19:28:57.776Z,99807.72
2022-08-07T19:31:41.691Z,99809.47
2022-08-07T19:33:58.153Z,99813.66
2022-08-07T19:36:27.999Z,99819.09
2022-08-07T19:38:58.927Z,99820.63
2022-08-07T19:41:39.358Z,99829.03
2022-08-07T19:44:25.284Z,99832.34
2022-08-07T19:47:06.572Z,99825.91
2022-08-07T19:49:58.579Z,99839.72
2022-08-07T19:52:31.056Z,99844.97
2022-08-07T19:54:59.805Z,99843.34
2022-08-07T19:58:03.120Z,99841.91
2022-08-07T20:00:36.553Z,99844.72
2022-08-07T20:03:34.466Z,99846.22
2022-08-07T20:06:00.881Z,99849.75
2022-08-07T20:08:34.272Z,99846.44
2022-08-07T20:11:03.935Z,99844.81
2022-08-07T20:13:41.841Z,99840.34
2022-08-07T20:16:15.757Z,99847.06
2022-08-07T20:18:59.661Z,99851.72
2022-08-07T20:21:42.212Z,99856.97
2022-08-07T20:24:23.993Z,99863.81
2022-08-07T20:26:58.862Z,99874.44
2022-08-07T20:29:49.521Z,99864.28
2022-08-07T20:32:22.396Z,99865.34
2022-08-07T20:34:58.272Z,99870.13
2022-08-07T20:37:37.270Z,99868.97
2022-08-07T20:40:32.339Z,99875.97
2022-08-07T20:43:02.173Z,99865.31
2022-08-07T20:46:26.563Z,99863.81
2022-08-07T20:48:28.771Z,99864.31
2022-08-07T20:51:00.231Z,99860.09
2022-08-07T20:54:04.820Z,99865.69
2022-08-07T20:56:16.582Z,99866.03
2022-08-07T20:58:55.896Z,99864.69
2022-08-07T21:01:36.326Z,99870.63
2022-08-07T21:04:23.615Z,99869.94
2022-08-07T21:06:55.100Z,99878.94
2022-08-07T21:09:51.771Z,99861.47
2022-08-07T21:12:29.098Z,99874.88
2022-08-07T21:15:02.375Z,99874.19
2022-08-07T21:18:20.477Z,99874.72
2022-08-07T21:20:29.539Z,99877.56
2022-08-07T21:22:59.101Z,99866.56
2022-08-07T21:26:30.684Z,99869.59
2022-08-07T21:29:15.663Z,99871.81
2022-08-07T21:32:43.600Z,99882.13
2022-08-07T21:35:01.336Z,99881.44
2022-08-07T21:37:57.939Z,99886.84
2022-08-07T21:40:38.393Z,99893.44
2022-08-07T21:43:10.977Z,99890.38
2022-08-07T21:46:07.806Z,99887.28
2022-08-07T21:48:55.821Z,99895.00
2022-08-07T21:51:32.216Z,99892.31
2022-08-07T21:54:27.500Z,99881.63
2022-08-07T21:57:30.831Z,99890.44
2022-08-07T22:00:27.447Z,99881.47
2022-08-07T22:03:30.654Z,99890.41
2022-08-07T22:06:30.012Z,99893.94
2022-08-07T22:08:59.755Z,99888.00
2022-08-07T22:12:05.464Z,99892.72
2022-08-07T22:14:23.761Z,99899.13
2022-08-07T22:17:04.816Z,99891.69
2022-08-07T22:19:54.061Z,99898.41
2022-08-07T22:22:30.034Z,99900.75
2022-08-07T22:25:10.918Z,99893.78
2022-08-07T22:28:29.599Z,99894.25
2022-08-07T22:30:58.649Z,99902.66
2022-08-07T22:33:50.978Z,99907.41
2022-08-07T22:36:46.378Z,99903.16
2022-08-07T22:39:26.022Z,99903.78
2022-08-07T22:42:25.844Z,99910.38
2022-08-07T22:45:13.298Z,99914.38
2022-08-07T22:48:54.603Z,99915.72
2022-08-07T22:51:14.246Z,99913.78
2022-08-07T22:54:05.238Z,99918.66
2022-08-07T22:57:16.973Z,99918.59
2022-08-07T23:00:03.037Z,99917.50
2022-08-07T23:02:35.481Z,99909.34
2022-08-07T23:06:07.642Z,99907.56
2022-08-07T23:08:31.177Z,99914.50
2022-08-07T23:11:16.160Z,99918.22
2022-08-07T23:14:12.273Z,99911.44
2022-08-07T23:17:19.890Z,99909.03
2022-08-07T23:20:52.310Z,99908.50
2022-08-07T23:24:04.973Z,99910.25
2022-08-07T23:26:25.304Z,99917.28
2022-08-07T23:30:35.509Z,99919.59
2022-08-07T23:34:23.608Z,99918.25
2022-08-07T23:35:43.452Z,99921.13
2022-08-07T23:38:19.499Z,99928.69
2022-08-07T23:41:47.483Z,99921.47
2022-08-07T23:44:52.338Z,99926.59
2022-08-07T23:47:42.172Z,99931.84
2022-08-07T23:50:36.688Z,99931.03
2022-08-07T23:53:22.897Z,99932.03
2022-08-07T23:56:21.047Z,99927.81
2022-08-07T23:59:10.781Z,99922.84
